Stovall, North Carolina
Current Conditions -  °F | °C
As of 5:55 AM on Friday 31 Oct 2014 (Local Time) from KHNZ Reporting Station
Clear Clear  
Wind Chill: 40°   Ceiling: Unl
Heat Index: 40°   Visibility: 10mi
Dew Point: 37°   Wind: 3mph
Humidity: 89%   Direction: 10°N
Pressure: 29.97"   Gusts: NA
Location:  36.45°N, 78.57°W
Report Text: KHNZ 310955Z AUTO 01003KT 10SM CLR 05/03 A2997 RMK AO2 T00470030
Loading
Personal Weather Stations






























Interactive Weather Map
Tropical Storm Tracking
New forecast layout! Learn more

10-Day Weather Forecast

Advertisements
Track Severe Weather on mobile